Time;durP1;ratioP1;P1;durP2;ratioP2;P2;SDS_P1;SDS_P2;PMS_P1;PMS_P2;Temp;Humidity;BMP_temperature;BMP_pressure;BME280_temperature;BME280_humidity;BME280_pressure;Samples;Min_cycle;Max_cycle;Signal;HPM_P1;HPM_P2
2022/12/03 00:02:29;;;;;;;25.95;18.15;;;;;;;;;;10239382;28;20053;-64
2022/12/03 00:07:27;;;;;;;38.55;22.40;;;;;;;;;;10256765;28;20056;-64
2022/12/03 00:12:27;;;;;;;34.17;20.67;;;;;;;;;;10278729;28;20099;-63
2022/12/03 00:17:26;;;;;;;33.88;22.50;;;;;;;;;;10279188;28;20072;-63
2022/12/03 00:22:24;;;;;;;40.70;22.83;;;;;;;;;;10278699;28;20045;-63
2022/12/03 00:27:22;;;;;;;30.35;19.92;;;;;;;;;;10278722;28;20076;-63
2022/12/03 00:32:22;;;;;;;30.60;19.90;;;;;;;;;;10278557;28;20080;-63
2022/12/03 00:37:20;;;;;;;45.67;28.25;;;;;;;;;;10278037;28;20045;-63
2022/12/03 00:42:18;;;;;;;44.35;21.15;;;;;;;;;;10292982;28;20072;-63
2022/12/03 00:47:17;;;;;;;38.00;23.15;;;;;;;;;;10278501;28;20045;-64
2022/12/03 00:52:16;;;;;;;35.08;21.35;;;;;;;;;;10277296;28;20088;-64
2022/12/03 00:57:14;;;;;;;28.33;17.85;;;;;;;;;;10277617;28;20049;-63
2022/12/03 01:02:13;;;;;;;31.25;19.60;;;;;;;;;;10277480;28;20045;-62
2022/12/03 01:07:11;;;;;;;33.03;19.17;;;;;;;;;;10277241;28;20041;-64
2022/12/03 01:12:10;;;;;;;27.30;21.35;;;;;;;;;;10276883;28;20084;-64
2022/12/03 01:17:09;;;;;;;26.50;17.00;;;;;;;;;;10276915;28;20867;-63
2022/12/03 01:22:07;;;;;;;24.88;17.27;;;;;;;;;;10276676;28;20049;-63
2022/12/03 01:27:05;;;;;;;26.77;19.42;;;;;;;;;;10276259;28;20064;-64
2022/12/03 01:32:18;;;;;;;28.85;18.48;;;;;;;;;;10276676;28;20083;-62
2022/12/03 01:37:17;;;;;;;25.98;17.25;;;;;;;;;;10276187;28;20049;-63
2022/12/03 01:42:16;;;;;;;25.70;18.60;;;;;;;;;;10275658;28;20453;-64
2022/12/03 01:47:18;;;;;;;29.50;18.60;;;;;;;;;;10275417;28;20041;-64
2022/12/03 01:52:17;;;;;;;25.75;18.42;;;;;;;;;;10275898;28;20073;-64
2022/12/03 01:57:19;;;;;;;36.67;21.52;;;;;;;;;;10274957;28;20048;-63
2022/12/03 02:02:22;;;;;;;31.58;17.50;;;;;;;;;;10275712;28;20077;-63
2022/12/03 02:07:22;;;;;;;27.83;18.90;;;;;;;;;;10274794;28;20064;-63
2022/12/03 02:12:22;;;;;;;26.67;18.58;;;;;;;;;;10274609;28;20072;-63
2022/12/03 02:17:22;;;;;;;25.15;17.60;;;;;;;;;;10275624;28;20072;-62
2022/12/03 02:22:27;;;;;;;28.20;18.25;;;;;;;;;;10275053;28;20498;-63
2022/12/03 02:27:27;;;;;;;24.23;19.13;;;;;;;;;;10275297;28;20095;-63
2022/12/03 02:32:25;;;;;;;26.73;18.15;;;;;;;;;;10274910;28;20079;-63
2022/12/03 02:37:24;;;;;;;27.23;18.65;;;;;;;;;;10274924;28;20068;-63
2022/12/03 02:42:35;;;;;;;21.23;16.55;;;;;;;;;;10274094;28;20056;-63
2022/12/03 02:47:39;;;;;;;30.13;17.48;;;;;;;;;;10274307;28;20088;-64
2022/12/03 02:52:37;;;;;;;26.35;17.48;;;;;;;;;;10274837;28;20080;-64
2022/12/03 02:57:36;;;;;;;25.45;17.30;;;;;;;;;;10274987;28;20041;-62
2022/12/03 03:02:36;;;;;;;23.23;17.67;;;;;;;;;;10274091;28;20045;-63
2022/12/03 03:07:35;;;;;;;25.38;17.27;;;;;;;;;;10279573;28;20045;-64
2022/12/03 03:12:34;;;;;;;37.45;20.23;;;;;;;;;;10280944;28;20524;-64
2022/12/03 03:17:38;;;;;;;30.65;21.20;;;;;;;;;;10281818;28;20037;-61
2022/12/03 03:22:37;;;;;;;30.83;19.92;;;;;;;;;;10281451;28;20411;-63
2022/12/03 03:27:35;;;;;;;29.58;20.85;;;;;;;;;;10281458;28;20076;-63
2022/12/03 03:32:34;;;;;;;28.40;21.20;;;;;;;;;;10280899;28;20083;-63
2022/12/03 03:37:34;;;;;;;29.90;19.15;;;;;;;;;;10280889;28;20048;-63
2022/12/03 03:42:33;;;;;;;31.65;21.48;;;;;;;;;;10280041;28;20056;-64
2022/12/03 03:47:31;;;;;;;25.27;19.25;;;;;;;;;;10280829;28;20056;-64
2022/12/03 03:52:30;;;;;;;34.38;23.92;;;;;;;;;;10279657;28;20081;-62
2022/12/03 03:57:29;;;;;;;31.92;20.63;;;;;;;;;;10280283;28;20037;-62
2022/12/03 04:02:28;;;;;;;31.38;21.02;;;;;;;;;;10280291;28;20064;-62
2022/12/03 04:07:27;;;;;;;24.90;20.35;;;;;;;;;;10279930;28;20426;-63
2022/12/03 04:17:42;;;;;;;30.15;21.25;;;;;;;;;;10241048;28;20065;-64
2022/12/03 04:22:40;;;;;;;29.02;21.23;;;;;;;;;;10238764;28;20097;-64
2022/12/03 04:38:11;;;;;;;29.85;20.55;;;;;;;;;;10238442;28;20052;-64
2022/12/03 04:43:10;;;;;;;30.70;21.95;;;;;;;;;;10237254;28;20050;-64
2022/12/03 04:48:09;;;;;;;31.38;21.00;;;;;;;;;;10238227;28;20069;-63
2022/12/03 04:53:07;;;;;;;29.15;19.90;;;;;;;;;;10238236;28;20085;-63
2022/12/03 04:58:05;;;;;;;30.60;21.80;;;;;;;;;;10236956;28;20077;-63
2022/12/03 05:03:04;;;;;;;26.90;20.17;;;;;;;;;;10237259;28;20080;-63
2022/12/03 05:08:03;;;;;;;33.90;23.63;;;;;;;;;;10237113;28;20045;-63
2022/12/03 05:13:02;;;;;;;29.27;21.80;;;;;;;;;;10235040;28;20430;-63
2022/12/03 05:18:00;;;;;;;29.38;20.58;;;;;;;;;;10236820;28;20073;-65
2022/12/03 05:22:58;;;;;;;45.85;23.35;;;;;;;;;;10237101;28;20057;-63
2022/12/03 05:27:58;;;;;;;30.00;22.00;;;;;;;;;;10236023;28;20502;-62
2022/12/03 05:32:56;;;;;;;119.20;65.40;;;;;;;;;;10234970;28;20076;-62
2022/12/03 05:37:54;;;;;;;40.50;28.50;;;;;;;;;;10235729;28;20167;-62
2022/12/03 05:42:55;;;;;;;31.52;21.00;;;;;;;;;;10235589;28;20073;-64
2022/12/03 05:47:56;;;;;;;34.15;24.45;;;;;;;;;;10235333;28;20077;-64
2022/12/03 05:52:54;;;;;;;48.35;31.73;;;;;;;;;;10235509;28;20044;-63
2022/12/03 05:57:52;;;;;;;32.75;21.27;;;;;;;;;;10235348;28;20072;-63
2022/12/03 06:02:51;;;;;;;36.58;25.52;;;;;;;;;;10234288;28;20073;-63
2022/12/03 06:07:51;;;;;;;42.85;27.75;;;;;;;;;;10235809;28;20056;-63
2022/12/03 06:12:49;;;;;;;36.17;22.77;;;;;;;;;;10275360;28;20044;-63
2022/12/03 06:17:48;;;;;;;37.67;25.55;;;;;;;;;;10274554;28;20477;-63
2022/12/03 06:22:46;;;;;;;36.85;23.90;;;;;;;;;;10275409;28;20041;-63
2022/12/03 06:27:46;;;;;;;34.33;22.30;;;;;;;;;;10275349;28;20056;-62
2022/12/03 06:32:44;;;;;;;39.42;23.75;;;;;;;;;;10275022;28;20080;-64
2022/12/03 06:37:42;;;;;;;28.27;19.67;;;;;;;;;;10274841;28;20099;-63
2022/12/03 06:42:40;;;;;;;29.10;19.17;;;;;;;;;;10268770;28;20511;-63
2022/12/03 06:47:40;;;;;;;32.25;22.50;;;;;;;;;;10268393;28;20069;-64
2022/12/03 06:52:38;;;;;;;33.22;22.30;;;;;;;;;;10282632;28;20065;-63
2022/12/03 06:57:36;;;;;;;43.92;29.88;;;;;;;;;;10269699;28;20072;-63
2022/12/03 07:02:35;;;;;;;52.65;37.83;;;;;;;;;;10260397;28;20084;-63
2022/12/03 07:07:34;;;;;;;61.70;40.70;;;;;;;;;;10261646;28;20072;-64
2022/12/03 07:12:32;;;;;;;53.92;33.95;;;;;;;;;;10254189;28;20100;-65
2022/12/03 07:17:31;;;;;;;58.08;37.33;;;;;;;;;;10268178;28;20511;-64
2022/12/03 07:22:29;;;;;;;58.17;40.08;;;;;;;;;;10259929;28;20037;-65
2022/12/03 07:27:28;;;;;;;57.13;37.88;;;;;;;;;;10260847;28;20044;-63
2022/12/03 07:32:26;;;;;;;70.60;39.80;;;;;;;;;;10259105;28;20507;-64
2022/12/03 07:37:25;;;;;;;54.83;33.03;;;;;;;;;;10260537;28;20076;-62
2022/12/03 07:42:23;;;;;;;73.38;47.03;;;;;;;;;;10272819;28;20045;-62
2022/12/03 07:47:22;;;;;;;48.40;32.72;;;;;;;;;;10265840;28;20083;-63
2022/12/03 07:52:20;;;;;;;49.58;32.70;;;;;;;;;;10258472;28;20064;-63
2022/12/03 07:57:19;;;;;;;43.65;30.08;;;;;;;;;;10254889;28;20065;-62
2022/12/03 08:02:17;;;;;;;66.28;44.75;;;;;;;;;;10250135;28;20061;-63
2022/12/03 08:07:20;;;;;;;39.83;25.77;;;;;;;;;;10256336;28;20061;-62
2022/12/03 08:12:22;;;;;;;98.30;57.22;;;;;;;;;;10251532;28;20073;-62
2022/12/03 08:17:28;;;;;;;59.72;43.72;;;;;;;;;;10253335;28;20081;-63
2022/12/03 08:22:29;;;;;;;56.22;40.72;;;;;;;;;;10244092;28;20041;-62
2022/12/03 08:27:28;;;;;;;33.38;23.75;;;;;;;;;;10277813;28;20056;-63
2022/12/03 08:32:27;;;;;;;55.65;37.05;;;;;;;;;;10260291;28;20418;-64
2022/12/03 08:37:25;;;;;;;125.50;66.47;;;;;;;;;;10244893;28;20073;-63
2022/12/03 08:42:44;;;;;;;45.17;31.20;;;;;;;;;;10258997;28;20056;-64
2022/12/03 08:47:42;;;;;;;39.33;27.00;;;;;;;;;;10248988;28;20046;-64
2022/12/03 08:52:40;;;;;;;32.28;26.60;;;;;;;;;;10258871;28;20063;-64
2022/12/03 08:57:42;;;;;;;36.25;20.77;;;;;;;;;;10254881;28;20076;-63
2022/12/03 09:02:44;;;;;;;34.40;22.55;;;;;;;;;;10252613;28;20100;-62
2022/12/03 09:07:42;;;;;;;28.40;20.70;;;;;;;;;;10249045;28;20068;-63
2022/12/03 09:12:42;;;;;;;30.13;21.60;;;;;;;;;;10266086;28;20075;-61
2022/12/03 09:17:40;;;;;;;23.55;18.38;;;;;;;;;;10263154;28;20087;-63
2022/12/03 09:22:38;;;;;;;35.10;24.00;;;;;;;;;;10252486;28;20073;-62
2022/12/03 09:27:37;;;;;;;34.10;23.65;;;;;;;;;;10237992;28;20041;-64
2022/12/03 09:32:36;;;;;;;27.27;19.95;;;;;;;;;;10264074;28;20077;-63
2022/12/03 09:37:35;;;;;;;120.10;70.70;;;;;;;;;;10245456;28;20081;-63
2022/12/03 09:42:33;;;;;;;43.63;34.88;;;;;;;;;;10251658;28;20351;-61
2022/12/03 09:47:31;;;;;;;63.53;37.63;;;;;;;;;;10235227;28;20065;-64
2022/12/03 09:52:33;;;;;;;34.55;22.15;;;;;;;;;;10234959;28;20068;-64
2022/12/03 09:57:31;;;;;;;28.00;20.15;;;;;;;;;;10235098;28;20084;-64
2022/12/03 10:02:30;;;;;;;36.03;24.98;;;;;;;;;;10266415;28;20433;-64
2022/12/03 10:07:28;;;;;;;37.92;24.98;;;;;;;;;;10240557;28;20069;-65
2022/12/03 10:12:28;;;;;;;66.05;43.40;;;;;;;;;;10231383;28;20489;-64
2022/12/03 10:17:29;;;;;;;56.72;42.40;;;;;;;;;;10242663;28;20076;-64
2022/12/03 10:22:27;;;;;;;38.90;28.73;;;;;;;;;;10247414;28;20088;-64
2022/12/03 10:27:29;;;;;;;41.75;24.52;;;;;;;;;;10280474;28;20482;-64
2022/12/03 10:32:39;;;;;;;34.78;24.98;;;;;;;;;;10254075;28;20045;-63
2022/12/03 10:37:55;;;;;;;58.60;34.03;;;;;;;;;;10247408;28;20084;-64
2022/12/03 10:43:11;;;;;;;43.88;27.88;;;;;;;;;;10247578;28;20491;-63
2022/12/03 10:48:14;;;;;;;33.45;23.50;;;;;;;;;;10247839;28;20045;-64
2022/12/03 10:53:12;;;;;;;42.58;25.95;;;;;;;;;;10284153;28;20077;-64
2022/12/03 10:58:16;;;;;;;102.85;44.28;;;;;;;;;;10274752;28;20120;-64
2022/12/03 11:03:17;;;;;;;44.88;27.52;;;;;;;;;;10247061;28;20479;-64
2022/12/03 11:08:20;;;;;;;45.92;28.80;;;;;;;;;;10247550;28;20084;-64
2022/12/03 11:13:42;;;;;;;46.55;29.42;;;;;;;;;;10246459;28;20491;-64
2022/12/03 11:18:57;;;;;;;38.97;26.23;;;;;;;;;;10246953;28;20089;-65
2022/12/03 11:24:17;;;;;;;25.70;20.05;;;;;;;;;;10246118;28;20475;-63
2022/12/03 11:29:16;;;;;;;57.15;40.95;;;;;;;;;;10241116;28;20080;-64
2022/12/03 11:34:48;;;;;;;47.88;35.72;;;;;;;;;;10240257;28;20034;-64
2022/12/03 11:40:00;;;;;;;78.18;44.58;;;;;;;;;;10239679;28;20084;-64
2022/12/03 11:45:15;;;;;;;57.28;37.35;;;;;;;;;;10239773;28;20268;-65
2022/12/03 11:50:20;;;;;;;37.78;25.65;;;;;;;;;;10240431;28;20076;-65
2022/12/03 11:55:24;;;;;;;31.58;24.42;;;;;;;;;;10239638;28;20402;-62
2022/12/03 12:00:24;;;;;;;32.57;25.17;;;;;;;;;;10237935;28;20057;-64
2022/12/03 12:05:24;;;;;;;41.75;28.90;;;;;;;;;;10239469;28;20435;-63
2022/12/03 12:10:38;;;;;;;28.90;22.88;;;;;;;;;;10238448;28;20051;-64
2022/12/03 12:15:43;;;;;;;33.63;24.05;;;;;;;;;;10238105;28;20073;-64
2022/12/03 12:20:41;;;;;;;53.17;27.53;;;;;;;;;;10237950;28;20515;-63
2022/12/03 12:25:40;;;;;;;33.60;23.80;;;;;;;;;;10236518;28;20053;-65
2022/12/03 12:30:40;;;;;;;44.15;29.13;;;;;;;;;;10237371;28;20121;-64
2022/12/03 12:35:40;;;;;;;46.70;31.20;;;;;;;;;;10238016;28;20052;-64
2022/12/03 12:40:39;;;;;;;56.65;34.00;;;;;;;;;;10248413;28;20088;-64
2022/12/03 12:45:39;;;;;;;41.20;28.38;;;;;;;;;;10236039;28;20079;-64
2022/12/03 12:50:40;;;;;;;31.95;23.05;;;;;;;;;;10236403;28;20089;-64
2022/12/03 12:55:38;;;;;;;34.83;23.65;;;;;;;;;;10236491;28;20052;-64
2022/12/03 13:00:37;;;;;;;30.80;22.50;;;;;;;;;;10237231;28;20053;-64
2022/12/03 13:05:37;;;;;;;28.60;23.15;;;;;;;;;;10236005;28;20041;-64
2022/12/03 13:10:38;;;;;;;34.10;23.95;;;;;;;;;;10236060;28;20071;-64
2022/12/03 13:15:39;;;;;;;49.50;30.63;;;;;;;;;;10236722;28;20045;-64
2022/12/03 13:20:37;;;;;;;48.70;33.17;;;;;;;;;;10235621;28;20479;-64
2022/12/03 13:25:37;;;;;;;40.65;28.90;;;;;;;;;;10235334;28;20458;-64
2022/12/03 13:30:57;;;;;;;30.50;21.73;;;;;;;;;;10235446;28;20452;-64
2022/12/03 13:35:55;;;;;;;32.55;24.40;;;;;;;;;;10234928;28;20069;-64
2022/12/03 13:40:57;;;;;;;100.50;58.42;;;;;;;;;;10234691;28;20101;-65
2022/12/03 13:45:58;;;;;;;46.78;30.90;;;;;;;;;;10235548;28;20041;-65
2022/12/03 13:50:56;;;;;;;39.35;26.58;;;;;;;;;;10234267;28;20052;-64
2022/12/03 13:55:57;;;;;;;58.63;35.83;;;;;;;;;;10235022;28;20045;-63
2022/12/03 14:00:57;;;;;;;31.85;23.50;;;;;;;;;;10234538;28;20061;-64
2022/12/03 14:05:55;;;;;;;42.33;32.80;;;;;;;;;;10234345;28;20080;-64
2022/12/03 14:10:53;;;;;;;37.10;28.10;;;;;;;;;;10235068;28;20052;-63
2022/12/03 14:15:59;;;;;;;39.85;33.80;;;;;;;;;;10234251;28;20073;-63
2022/12/03 14:20:57;;;;;;;35.25;28.23;;;;;;;;;;10233823;28;20072;-64
2022/12/03 14:25:55;;;;;;;33.70;26.30;;;;;;;;;;10234574;28;20076;-62
2022/12/03 14:30:53;;;;;;;77.15;48.22;;;;;;;;;;10233717;28;20477;-64
2022/12/03 14:35:54;;;;;;;52.92;35.20;;;;;;;;;;10233609;28;20077;-64
2022/12/03 14:40:52;;;;;;;39.95;27.65;;;;;;;;;;10233473;28;20073;-63
2022/12/03 14:45:51;;;;;;;46.60;33.88;;;;;;;;;;10233423;28;20107;-64
2022/12/03 14:50:51;;;;;;;48.53;34.72;;;;;;;;;;10233653;28;20433;-65
2022/12/03 14:55:50;;;;;;;47.63;27.80;;;;;;;;;;10233794;28;20049;-64
2022/12/03 15:00:48;;;;;;;39.30;27.95;;;;;;;;;;10233833;28;20506;-64
2022/12/03 15:05:47;;;;;;;37.85;28.85;;;;;;;;;;10239704;28;20050;-64
2022/12/03 15:10:45;;;;;;;33.10;25.15;;;;;;;;;;10241378;28;20081;-63
2022/12/03 15:15:44;;;;;;;36.28;26.95;;;;;;;;;;10240279;28;20431;-63
2022/12/03 15:20:42;;;;;;;30.92;26.27;;;;;;;;;;10240060;28;20065;-64
2022/12/03 15:25:41;;;;;;;44.75;32.13;;;;;;;;;;10240776;28;20538;-64
2022/12/03 15:30:39;;;;;;;61.88;44.08;;;;;;;;;;10240643;28;20076;-63
2022/12/03 15:35:40;;;;;;;40.78;28.77;;;;;;;;;;10239855;28;20077;-63
2022/12/03 15:40:38;;;;;;;36.22;26.83;;;;;;;;;;10239465;28;20081;-64
2022/12/03 15:45:36;;;;;;;43.72;34.63;;;;;;;;;;10239422;28;20041;-64
2022/12/03 15:50:34;;;;;;;47.83;37.58;;;;;;;;;;10239190;28;20485;-64
2022/12/03 15:55:38;;;;;;;42.97;31.70;;;;;;;;;;10239023;28;20049;-64
2022/12/03 16:00:36;;;;;;;51.72;39.00;;;;;;;;;;10238908;28;20077;-64
2022/12/03 16:05:34;;;;;;;54.67;41.03;;;;;;;;;;10238518;28;20423;-64
2022/12/03 16:10:33;;;;;;;37.83;29.10;;;;;;;;;;10238307;28;20042;-64
2022/12/03 16:15:33;;;;;;;43.90;29.05;;;;;;;;;;10237193;28;20072;-64
2022/12/03 16:20:32;;;;;;;41.05;26.95;;;;;;;;;;10242999;28;20088;-64
2022/12/03 16:25:30;;;;;;;41.65;31.40;;;;;;;;;;10263369;28;20064;-64
2022/12/03 16:30:28;;;;;;;43.33;30.30;;;;;;;;;;10245975;28;20482;-66
2022/12/03 16:35:28;;;;;;;42.28;32.15;;;;;;;;;;10248158;28;20061;-64
2022/12/03 16:40:26;;;;;;;64.07;46.03;;;;;;;;;;10254407;28;20076;-64
2022/12/03 16:50:43;;;;;;;49.03;34.17;;;;;;;;;;10252837;28;20072;-64
2022/12/03 16:55:42;;;;;;;76.07;55.53;;;;;;;;;;10252875;28;20063;-64
2022/12/03 17:00:40;;;;;;;40.47;27.77;;;;;;;;;;10256614;28;20079;-64
2022/12/03 17:05:38;;;;;;;46.85;36.05;;;;;;;;;;10256144;28;20515;-64
2022/12/03 17:10:38;;;;;;;42.53;28.52;;;;;;;;;;10254044;28;20076;-63
2022/12/03 17:15:36;;;;;;;34.00;25.10;;;;;;;;;;10256196;28;20037;-63
2022/12/03 17:20:34;;;;;;;32.83;23.63;;;;;;;;;;10253552;28;20069;-64
2022/12/03 17:25:33;;;;;;;33.35;25.05;;;;;;;;;;10247786;28;20080;-64
2022/12/03 17:30:32;;;;;;;58.60;36.25;;;;;;;;;;10235181;28;20405;-64
2022/12/03 17:35:31;;;;;;;26.63;20.35;;;;;;;;;;10235658;28;20076;-65
2022/12/03 17:40:29;;;;;;;31.17;22.05;;;;;;;;;;10233554;28;20077;-64
2022/12/03 17:45:27;;;;;;;45.15;31.65;;;;;;;;;;10231359;28;20041;-64
2022/12/03 17:50:27;;;;;;;34.00;25.23;;;;;;;;;;10233339;28;20422;-63
2022/12/03 17:55:25;;;;;;;35.47;25.27;;;;;;;;;;10235205;28;20068;-63
2022/12/03 18:00:38;;;;;;;30.25;23.30;;;;;;;;;;10248608;28;20064;-64
2022/12/03 18:05:37;;;;;;;23.02;18.95;;;;;;;;;;10247637;28;20065;-63
2022/12/03 18:10:36;;;;;;;37.75;23.42;;;;;;;;;;10249998;28;20051;-62
2022/12/03 18:15:34;;;;;;;28.90;22.55;;;;;;;;;;10248413;28;20514;-64
2022/12/03 18:20:32;;;;;;;34.55;22.90;;;;;;;;;;10244230;28;20061;-63
2022/12/03 18:25:32;;;;;;;29.98;19.52;;;;;;;;;;10244664;28;20080;-64
2022/12/03 18:30:30;;;;;;;30.88;24.05;;;;;;;;;;10255370;28;20676;-64
2022/12/03 18:35:28;;;;;;;36.78;21.70;;;;;;;;;;10246855;28;20044;-64
2022/12/03 18:40:26;;;;;;;32.20;20.98;;;;;;;;;;10247459;28;20064;-64
2022/12/03 18:45:26;;;;;;;30.52;21.38;;;;;;;;;;10240321;28;20065;-64
2022/12/03 18:50:25;;;;;;;32.60;23.20;;;;;;;;;;10239273;28;20499;-65
2022/12/03 18:55:23;;;;;;;31.52;21.80;;;;;;;;;;10241140;28;20510;-65
2022/12/03 19:00:22;;;;;;;31.65;20.95;;;;;;;;;;10241781;28;20661;-65
2022/12/03 19:05:22;;;;;;;30.63;22.10;;;;;;;;;;10238592;28;20080;-64
2022/12/03 19:10:20;;;;;;;30.67;20.77;;;;;;;;;;10239954;28;20518;-64
2022/12/03 19:15:18;;;;;;;40.45;25.85;;;;;;;;;;10241987;28;20056;-65
2022/12/03 19:20:17;;;;;;;37.10;24.42;;;;;;;;;;10240446;28;20076;-64
2022/12/03 19:25:17;;;;;;;29.42;22.58;;;;;;;;;;10241688;28;20085;-65
2022/12/03 19:30:16;;;;;;;44.42;30.17;;;;;;;;;;10241429;28;20053;-65
2022/12/03 19:35:14;;;;;;;30.23;21.13;;;;;;;;;;10240143;28;20048;-66
2022/12/03 19:40:12;;;;;;;29.10;20.25;;;;;;;;;;10241100;28;20073;-65
2022/12/03 19:45:12;;;;;;;30.40;21.08;;;;;;;;;;10240892;28;20088;-65
2022/12/03 19:50:13;;;;;;;30.13;20.13;;;;;;;;;;10239303;28;20049;-64
2022/12/03 19:55:19;;;;;;;34.60;23.13;;;;;;;;;;10239432;28;20037;-64
2022/12/03 20:00:19;;;;;;;26.52;17.48;;;;;;;;;;10240198;28;20081;-64
2022/12/03 20:05:17;;;;;;;25.35;17.23;;;;;;;;;;10239600;28;20435;-65
2022/12/03 20:10:15;;;;;;;23.77;16.15;;;;;;;;;;10238924;28;20042;-65
2022/12/03 20:15:14;;;;;;;38.08;23.60;;;;;;;;;;10239617;28;20045;-66
2022/12/03 20:20:13;;;;;;;28.60;19.77;;;;;;;;;;10239588;28;20092;-64
2022/12/03 20:25:12;;;;;;;30.73;20.92;;;;;;;;;;10238296;28;20081;-65
2022/12/03 20:30:10;;;;;;;30.65;20.65;;;;;;;;;;10239358;28;20037;-65
2022/12/03 20:35:09;;;;;;;29.08;22.05;;;;;;;;;;10237806;28;20064;-64
2022/12/03 20:40:09;;;;;;;29.02;18.58;;;;;;;;;;10237552;28;20157;-65
2022/12/03 20:45:08;;;;;;;21.65;15.70;;;;;;;;;;10238880;28;20458;-64
2022/12/03 20:50:07;;;;;;;27.10;17.52;;;;;;;;;;10238703;28;20052;-65
2022/12/03 20:55:05;;;;;;;22.85;16.02;;;;;;;;;;10238202;28;20069;-64
2022/12/03 21:00:06;;;;;;;23.05;15.90;;;;;;;;;;10236514;28;20069;-65
2022/12/03 21:05:04;;;;;;;24.70;17.02;;;;;;;;;;10236846;28;20049;-65
2022/12/03 21:10:02;;;;;;;28.55;20.00;;;;;;;;;;10237524;28;20075;-64
2022/12/03 21:15:01;;;;;;;25.90;17.27;;;;;;;;;;10236323;28;20053;-65
2022/12/03 21:20:01;;;;;;;30.88;19.10;;;;;;;;;;10237151;28;20077;-63
2022/12/03 21:24:59;;;;;;;29.33;18.17;;;;;;;;;;10236794;28;20148;-64
2022/12/03 21:29:57;;;;;;;20.00;15.18;;;;;;;;;;10241280;28;20048;-65
2022/12/03 21:34:55;;;;;;;28.50;16.17;;;;;;;;;;10273230;28;20067;-64
2022/12/03 21:39:55;;;;;;;24.08;16.38;;;;;;;;;;10276887;28;20083;-63
2022/12/03 21:44:53;;;;;;;29.30;16.92;;;;;;;;;;10272097;28;20510;-65
2022/12/03 21:49:51;;;;;;;27.23;18.63;;;;;;;;;;10267380;28;20081;-63
2022/12/03 21:54:52;;;;;;;31.45;19.10;;;;;;;;;;10238921;28;20069;-63
2022/12/03 21:59:51;;;;;;;26.10;17.95;;;;;;;;;;10235887;28;20076;-64
2022/12/03 22:04:50;;;;;;;32.13;19.92;;;;;;;;;;10235211;28;20041;-65
2022/12/03 22:09:49;;;;;;;26.33;19.42;;;;;;;;;;10235755;28;20056;-65
2022/12/03 22:14:47;;;;;;;31.38;20.08;;;;;;;;;;10243700;28;20068;-65
2022/12/03 22:19:46;;;;;;;40.70;27.13;;;;;;;;;;10254252;28;20069;-64
2022/12/03 22:24:45;;;;;;;29.80;19.15;;;;;;;;;;10254439;28;20037;-64
2022/12/03 22:29:43;;;;;;;30.45;18.02;;;;;;;;;;10254353;28;20259;-63
2022/12/03 22:34:42;;;;;;;27.10;17.73;;;;;;;;;;10253489;28;20040;-63
2022/12/03 22:39:41;;;;;;;23.52;17.58;;;;;;;;;;10254882;28;20075;-65
2022/12/03 22:44:40;;;;;;;26.15;18.45;;;;;;;;;;10253981;28;20079;-64
2022/12/03 22:49:38;;;;;;;29.58;19.88;;;;;;;;;;10262748;28;20052;-64
2022/12/03 22:54:36;;;;;;;31.38;19.95;;;;;;;;;;10275203;28;20048;-65
2022/12/03 22:59:35;;;;;;;30.35;20.73;;;;;;;;;;10274924;28;20079;-63
2022/12/03 23:04:34;;;;;;;30.48;19.55;;;;;;;;;;10275154;28;20123;-64
2022/12/03 23:09:32;;;;;;;24.02;17.55;;;;;;;;;;10275183;28;20041;-64
2022/12/03 23:14:30;;;;;;;24.90;17.60;;;;;;;;;;10274802;28;20418;-64
2022/12/03 23:19:30;;;;;;;31.63;21.67;;;;;;;;;;10274788;28;20048;-64
2022/12/03 23:24:28;;;;;;;28.08;18.52;;;;;;;;;;10278976;28;20521;-64
2022/12/03 23:29:26;;;;;;;27.67;18.77;;;;;;;;;;10282180;28;20498;-64
2022/12/03 23:34:24;;;;;;;33.08;20.70;;;;;;;;;;10281353;28;20045;-64
2022/12/03 23:39:27;;;;;;;28.58;19.42;;;;;;;;;;10280679;28;20041;-64
2022/12/03 23:44:26;;;;;;;26.90;18.55;;;;;;;;;;10281615;28;20067;-64
2022/12/03 23:49:25;;;;;;;25.70;19.60;;;;;;;;;;10281037;28;20056;-64
2022/12/03 23:54:23;;;;;;;29.38;18.73;;;;;;;;;;10280066;28;20541;-65
2022/12/03 23:59:23;;;;;;;31.77;20.30;;;;;;;;;;10280455;28;20498;-65
